Date,TemperatureHighF,TemperatureAvgF,TemperatureLowF,DewpointHighF,DewpointAvgF,DewpointLowF,HumidityHigh,HumidityAvg,HumidityLow,PressureMaxIn,PressureMinIn,WindSpeedMaxMPH,WindSpeedAvgMPH,GustSpeedMaxMPH,PrecipitationSumIn
2013-1-1,29,27,23,27,26,20,95,93,88,29.95,29.87,11,6,22,0.00
2013-1-2,23,19,16,21,14,11,92,82,65,30.11,29.91,11,4,21,0.00
2013-1-3,29,21,13,20,15,11,91,78,64,30.11,30.01,15,5,33,0.00
2013-1-4,27,24,22,21,18,-100,88,82,74,30.12,30.04,18,12,34,0.00
2013-1-5,33,26,22,23,20,18,88,78,63,30.29,30.09,15,6,27,0.00
2013-1-6,35,32,29,29,26,22,89,79,71,30.09,29.95,12,4,19,0.01
2013-1-7,31,27,18,28,23,16,91,84,71,30.36,30.09,11,4,21,0.01
2013-1-8,41,28,10,27,20,-100,96,75,56,30.32,30.22,9,1,20,0.10
2013-1-9,44,33,21,40,30,19,96,87,70,30.38,30.18,19,6,33,0.05
2013-1-10,41,36,29,29,25,-100,86,69,54,30.53,30.37,7,2,22,0.01
2013-1-11,41,38,35,40,32,25,98,82,60,30.37,30.04,5,1,12,0.11
2013-1-12,58,51,44,52,49,43,99,93,80,30.13,30.06,4,1,9,0.06
2013-1-13,62,59,51,53,51,50,95,75,67,30.02,29.93,15,4,28,0.00
2013-1-14,56,39,30,54,36,27,97,87,73,30.28,29.93,11,4,28,0.08
2013-1-15,31,30,28,29,27,25,95,90,82,30.28,30.04,3,1,9,0.03
2013-1-16,33,31,29,32,30,27,98,95,84,30.04,29.81,9,2,19,0.01
2013-1-17,31,29,27,27,25,24,93,87,78,30.09,29.93,11,5,18,0.00
2013-1-18,28,23,15,25,14,8,90,69,45,30.36,30.04,15,6,32,0.00
2013-1-19,48,39,27,20,14,-100,46,36,29,30.22,29.85,15,6,29,0.25
2013-1-20,43,34,20,29,18,11,70,54,35,30.01,29.74,26,12,50,0.04
2013-1-21,27,19,9,19,14,6,90,79,57,30.01,29.78,15,6,26,0.01
2013-1-22,9,5,1,6,0,-4,88,78,63,30.09,29.84,21,9,33,0.00
2013-1-23,11,6,0,7,0,-5,88,74,57,30.12,29.94,12,4,21,0.00
2013-1-24,15,11,5,8,3,-5,89,72,47,30.37,29.90,13,4,25,0.00
2013-1-25,18,10,4,16,5,-3,92,81,64,30.36,29.91,7,1,13,0.00
2013-1-26,22,19,16,20,16,13,92,89,85,30.32,29.93,11,4,19,0.00
2013-1-27,28,20,9,19,14,7,93,77,60,30.42,30.29,3,1,10,0.17
2013-1-28,47,38,26,46,36,19,98,92,72,30.29,30.00,11,4,22,0.14
2013-1-29,62,52,47,53,49,46,99,91,68,30.08,29.95,10,3,18,0.06
2013-1-30,63,53,48,55,51,45,96,90,75,29.83,29.29,12,3,28,0.80
2013-1-31,48,21,18,45,16,9,95,80,64,29.75,29.30,22,13,44,0.59
2013-2-1,19,12,8,17,8,3,91,84,71,30.17,29.70,17,9,31,0.00
2013-2-2,22,14,2,20,10,-1,93,84,65,30.17,29.85,8,3,19,0.00
2013-2-3,24,20,14,21,16,-100,94,90,86,29.87,29.69,14,4,30,0.02
2013-2-4,29,19,13,28,16,9,96,87,67,29.92,29.77,14,6,31,0.01
2013-2-5,33,29,27,31,28,24,97,94,80,29.86,29.72,11,3,25,0.01
2013-2-6,27,24,13,26,21,11,95,88,79,30.24,29.85,11,4,20,0.01
2013-2-7,31,24,9,26,20,7,97,85,78,30.25,30.04,8,2,18,0.01
2013-2-8,35,28,21,34,26,20,97,93,84,30.04,29.75,16,6,39,0.12
2013-2-9,26,20,13,20,15,-100,94,83,66,30.29,29.96,17,6,33,0.01
2013-2-10,38,24,5,21,14,2,93,67,43,30.30,30.02,5,1,17,0.03
2013-2-11,55,42,31,46,32,20,98,71,29,30.05,29.69,18,6,44,0.09
2013-2-12,40,34,30,27,24,21,78,67,52,29.97,29.83,21,9,35,0.01
2013-2-13,37,31,25,30,23,-100,96,78,57,29.89,29.60,8,1,14,0.00
2013-2-14,38,31,24,29,25,20,94,80,65,29.90,29.73,10,4,19,0.08
2013-2-15,38,33,28,32,28,24,94,82,59,29.98,29.87,10,5,18,0.01
2013-2-16,28,22,16,26,17,12,92,80,61,29.93,29.78,9,4,15,0.00
2013-2-17,17,14,11,15,11,3,91,87,70,30.11,29.76,15,7,29,0.01
2013-2-18,42,23,7,23,7,-100,81,58,38,30.20,29.94,10,2,18,0.01
2013-2-19,42,33,20,37,27,18,95,81,54,29.97,29.60,16,6,30,0.10
2013-2-20,20,16,13,18,9,-100,93,84,77,30.05,29.78,16,10,37,0.02
2013-2-21,20,15,10,15,11,-100,91,86,79,30.24,30.02,13,5,25,0.00
2013-2-22,25,22,12,24,19,10,95,87,74,30.20,30.01,12,3,25,0.00
2013-2-23,44,34,25,39,32,24,96,91,79,30.01,29.79,4,0,11,0.01
2013-2-24,34,27,23,32,23,-100,95,86,79,30.04,29.78,12,6,25,0.01
2013-2-25,38,29,22,23,20,18,89,70,46,30.14,30.02,7,2,16,0.00
2013-2-26,33,31,28,32,24,-100,97,80,64,30.07,29.60,11,4,26,0.15
2013-2-27,36,33,31,33,31,29,98,94,83,29.65,29.53,14,3,24,0.27
2013-2-28,30,29,28,29,27,25,95,91,83,29.70,29.56,12,7,24,0.02
2013-3-1,29,26,22,27,24,19,95,89,79,29.84,29.70,11,6,18,0.02
2013-3-2,23,21,19,20,18,16,92,86,78,29.83,29.76,9,5,18,0.01
2013-3-3,23,21,19,19,17,15,91,85,74,29.85,29.77,13,7,23,0.00
2013-3-4,29,22,16,18,14,-100,91,76,60,29.98,29.85,12,7,30,0.00
2013-3-5,41,29,15,26,15,3,91,59,20,29.98,29.67,11,2,19,0.01
2013-3-6,35,30,27,30,27,25,96,88,77,30.02,29.63,9,3,16,0.21
2013-3-7,34,31,29,28,26,24,91,81,67,30.16,30.01,10,5,20,0.05
2013-3-8,32,28,23,26,24,21,94,86,77,30.32,30.14,12,7,25,0.01
2013-3-9,49,32,12,28,20,10,95,66,28,30.33,30.22,3,0,7,0.05
2013-3-10,55,46,39,29,23,16,46,40,36,30.22,30.08,5,1,15,0.01
2013-3-11,50,47,44,44,30,24,94,54,43,30.09,29.78,9,2,23,0.03
2013-3-12,47,37,31,46,34,24,97,91,75,29.93,29.74,12,6,23,0.52
2013-3-13,32,27,22,27,23,-100,95,84,62,30.00,29.84,16,7,30,0.02
2013-3-14,31,24,19,19,15,-100,91,72,54,30.07,29.96,20,10,37,0.00
2013-3-15,43,34,24,33,24,18,77,68,58,30.04,29.77,17,6,30,0.00
2013-3-16,41,37,33,39,36,31,98,93,75,29.87,29.61,11,2,19,0.11
2013-3-17,32,29,24,32,24,20,98,82,68,30.14,29.86,8,3,15,0.01
2013-3-18,28,26,24,27,24,21,97,91,76,30.13,29.75,10,5,22,0.00
2013-3-19,40,33,28,34,24,12,98,71,31,29.87,29.67,21,11,36,0.36
2013-3-20,34,28,23,25,17,14,91,66,46,29.88,29.74,16,9,31,0.01
2013-3-21,23,18,14,21,12,6,92,75,58,29.80,29.70,12,6,28,0.00
2013-3-22,30,23,19,19,16,-100,89,77,63,29.92,29.75,14,7,27,0.00
2013-3-23,39,29,20,23,20,16,85,69,47,29.97,29.87,11,4,20,0.03
2013-3-24,32,27,21,25,21,18,93,79,63,29.95,29.51,7,2,15,0.01
2013-3-25,32,29,26,30,27,25,96,93,87,29.65,29.42,10,4,17,0.26
2013-3-26,37,31,27,29,27,24,96,86,68,29.97,29.65,11,6,21,0.07
2013-3-27,35,31,27,29,26,22,96,85,61,30.07,29.96,13,7,26,0.03
2013-3-28,34,31,28,31,28,26,95,88,79,30.19,30.01,14,6,24,0.01
2013-3-29,45,37,31,30,26,22,87,66,43,30.21,30.11,10,4,18,0.01
2013-3-30,48,35,24,28,16,-100,88,59,33,30.19,30.05,6,1,9,0.00
2013-3-31,43,40,34,42,34,-100,97,83,41,30.05,29.70,6,2,18,0.20
2013-4-1,42,37,30,40,31,13,93,79,43,29.91,29.69,16,7,29,0.06
2013-4-2,33,28,22,19,14,11,85,58,40,30.09,29.91,14,7,27,0.01
2013-4-3,34,28,23,20,13,9,69,54,38,30.32,30.07,16,6,28,0.00
2013-4-4,42,30,15,19,12,3,86,52,23,30.29,29.97,7,2,17,0.00
2013-4-5,49,40,32,29,22,17,73,51,33,30.09,29.88,13,5,25,0.00
2013-4-6,50,38,23,21,17,10,83,48,22,30.23,30.09,7,3,13,0.00
2013-4-7,66,53,42,48,33,18,87,48,35,30.11,29.93,17,4,32,0.05
2013-4-8,69,58,46,51,44,-100,94,65,38,30.09,29.97,8,2,18,0.05
2013-4-9,75,64,56,53,50,43,78,61,42,30.14,29.96,11,4,20,0.01
2013-4-10,77,68,57,56,53,49,90,58,42,30.02,29.87,14,8,28,0.21
2013-4-11,74,62,50,57,53,49,98,76,45,29.97,29.71,10,3,22,0.21
2013-4-12,65,54,42,57,48,34,97,80,45,29.83,29.61,17,6,30,0.75
2013-4-13,54,44,36,34,30,-100,78,62,40,29.97,29.80,13,7,25,0.02
2013-4-14,60,45,31,35,29,-100,83,58,34,30.11,29.95,10,3,17,0.00
2013-4-15,56,53,50,48,43,35,84,69,48,30.19,30.06,9,3,23,0.00
2013-4-16,76,62,51,56,52,48,94,72,45,30.23,30.09,13,4,28,0.41
2013-4-17,63,57,53,58,54,52,98,92,82,30.25,30.16,5,1,10,0.43
2013-4-18,73,62,56,61,56,53,96,82,60,30.20,29.92,8,4,22,0.01
2013-4-19,69,57,41,58,51,36,93,81,67,29.93,29.58,16,6,33,0.38
2013-4-20,43,37,33,36,27,21,89,67,45,30.31,29.80,18,10,32,0.01
2013-4-21,47,36,24,23,21,18,86,57,32,30.52,30.31,6,2,13,0.01
2013-4-22,51,42,35,31,24,20,67,50,33,30.48,30.31,8,5,18,0.00
2013-4-23,61,47,33,40,34,29,87,64,35,30.32,30.05,8,2,13,0.00
2013-4-24,70,52,37,56,45,34,95,77,51,30.08,29.79,19,5,48,0.34
2013-4-25,54,42,33,34,26,-100,92,61,31,30.30,30.08,12,6,25,0.05
2013-4-26,57,45,33,36,30,23,90,59,30,30.45,30.30,10,2,15,0.00
2013-4-27,65,51,32,39,34,29,88,57,34,30.40,30.24,7,2,16,0.00
2013-4-28,54,49,45,47,42,-100,96,81,54,30.24,30.05,8,3,20,0.15
2013-4-29,54,50,46,51,48,44,98,94,89,30.09,30.02,6,2,13,0.02
2013-4-30,58,52,49,51,49,47,98,90,77,30.25,30.08,8,4,16,0.02
2013-5-1,65,57,49,50,38,29,95,51,28,30.39,30.25,6,4,17,0.01
2013-5-2,66,55,43,40,35,-100,83,50,26,30.41,30.30,10,4,19,0.00
2013-5-3,62,54,47,46,40,31,76,59,40,30.34,30.26,11,4,21,0.00
2013-5-4,61,51,41,43,39,35,88,66,45,30.29,30.15,11,5,20,0.00
2013-5-5,62,52,42,40,35,24,77,55,24,30.19,30.09,9,4,19,0.00
2013-5-6,56,50,42,52,46,36,96,87,66,30.32,30.06,9,4,17,0.13
2013-5-7,56,54,52,55,53,51,98,95,87,30.07,29.97,7,4,16,1.31
2013-5-8,66,55,46,54,49,44,98,81,46,30.13,29.93,6,2,19,1.10
2013-5-9,66,57,50,54,51,49,96,81,58,30.05,29.92,11,4,24,0.01
2013-5-10,74,59,50,58,51,-100,95,80,52,30.05,29.89,12,2,22,0.14
2013-5-11,58,56,51,56,54,46,97,94,84,29.89,29.81,9,4,17,0.45
2013-5-12,50,43,38,46,31,-100,91,64,43,30.01,29.81,15,8,32,0.03
2013-5-13,46,40,32,28,24,21,73,56,39,30.14,29.98,13,5,26,0.01
2013-5-14,54,42,26,35,29,24,94,63,40,30.15,29.98,11,2,22,0.00
2013-5-15,81,65,47,59,50,34,85,60,42,29.98,29.78,18,6,31,0.01
2013-5-16,71,60,58,59,35,-100,94,74,45,30.03,29.84,13,6,23,0.29
2013-5-17,76,64,54,59,45,-100,97,68,35,30.14,30.03,4,1,12,0.01
2013-5-18,67,60,55,60,53,44,98,77,63,30.21,30.13,8,3,14,0.00
2013-5-19,60,56,54,59,55,-100,99,98,97,30.21,30.09,5,2,10,0.01
2013-5-20,78,68,60,67,62,59,97,80,56,30.12,30.01,4,1,10,0.01
2013-5-21,82,71,58,66,62,57,99,75,50,30.05,29.92,7,2,15,0.00
2013-5-22,82,69,61,64,59,56,89,72,45,29.98,29.88,7,3,19,0.31
2013-5-23,74,63,57,61,57,53,97,83,50,29.91,29.79,9,3,24,0.11
2013-5-24,57,42,37,55,38,28,96,85,69,30.22,29.83,15,8,29,0.03
2013-5-25,55,43,34,35,30,-100,90,66,40,30.24,30.16,13,6,27,0.00
2013-5-26,60,49,38,37,33,29,75,56,37,30.27,30.19,13,6,23,0.00
2013-5-27,60,50,34,48,40,32,95,72,43,30.30,30.18,4,0,9,0.00
2013-5-28,75,61,52,63,55,45,95,80,57,30.19,30.09,13,2,29,0.09
2013-5-29,80,70,58,61,54,-100,89,66,38,30.18,30.10,14,4,25,0.01
2013-5-30,84,71,56,63,59,54,95,68,37,30.28,30.15,7,1,16,0.00
2013-5-31,85,71,59,63,60,56,94,70,39,30.22,30.07,8,1,15,0.00
2013-6-1,85,72,60,66,62,59,97,74,44,30.10,29.94,10,2,16,0.00
2013-6-2,75,69,61,64,59,-100,95,76,57,30.09,29.88,11,4,24,0.00
2013-6-3,64,60,52,60,56,49,96,86,72,30.05,29.90,8,2,15,0.00
2013-6-4,66,55,38,49,42,-100,95,66,44,30.18,30.04,6,2,12,0.00
2013-6-5,71,60,44,57,50,-100,94,73,60,30.19,30.04,7,3,16,0.00
2013-6-6,63,59,56,59,56,55,99,92,80,30.05,29.87,5,1,13,0.50
2013-6-7,65,61,58,63,60,57,99,98,93,29.87,29.74,6,1,14,0.22
2013-6-8,66,58,52,57,54,51,99,88,69,30.15,29.83,9,4,16,0.06
2013-6-9,72,63,50,64,58,49,98,85,71,30.24,30.11,7,2,13,0.00
2013-6-10,71,65,60,67,63,58,97,92,78,30.14,29.85,8,2,15,0.43
2013-6-11,69,64,60,64,60,58,96,90,76,29.96,29.85,10,6,24,0.06
2013-6-12,77,70,61,67,63,60,96,82,58,29.97,29.88,10,4,21,0.02
2013-6-13,69,64,57,67,61,53,96,89,79,29.88,29.60,13,6,28,0.25
2013-6-14,68,60,53,55,52,49,92,76,53,30.07,29.74,13,5,22,0.01
2013-6-15,71,62,49,55,50,46,98,68,45,30.16,30.06,8,3,16,0.00
2013-6-16,70,63,57,64,59,51,95,86,70,30.09,29.98,16,5,28,0.09
2013-6-17,76,68,63,64,61,58,97,81,56,30.03,29.97,8,4,16,0.15
2013-6-18,72,65,58,65,61,57,97,89,72,29.99,29.87,6,1,16,0.46
2013-6-19,72,62,54,60,50,-100,97,74,53,30.18,29.96,190,6,190,0.46
2013-6-20,76,63,51,62,56,50,96,80,56,30.26,30.18,5,1,10,0.00
2013-6-22,82,79,73,65,62,58,75,57,45,30.29,30.17,7,2,16,0.00
2013-6-23,82,72,60,68,64,58,96,77,56,30.24,30.13,6,1,12,0.00
2013-6-24,81,70,60,67,62,-100,98,78,55,30.22,30.10,8,2,16,0.06
2013-6-25,82,72,62,66,63,59,97,76,51,30.14,29.98,20,4,42,0.10
2013-6-26,75,67,61,67,64,60,98,89,70,30.04,29.90,13,3,23,0.25
2013-6-27,70,65,60,67,62,-100,99,95,88,29.90,29.70,11,3,20,0.44
2013-6-28,74,65,59,66,62,57,97,91,74,29.70,29.59,8,4,24,0.39
2013-6-29,75,66,58,61,58,-100,97,79,58,29.77,29.60,9,4,17,0.01
2013-6-30,79,67,56,67,61,55,98,82,55,29.91,29.76,5,1,11,0.03
2013-7-1,75,68,65,68,65,63,97,90,75,30.03,29.88,4,1,13,0.21
2013-7-2,75,70,66,69,66,64,97,90,78,30.17,30.02,5,1,10,0.09
2013-7-3,79,70,65,71,66,63,96,87,69,30.27,30.17,7,1,12,0.34
2013-7-4,80,72,66,71,65,-100,96,83,59,30.29,30.21,8,1,15,0.19
2013-7-5,82,71,64,70,66,63,97,85,58,30.25,30.17,8,1,16,0.31
2013-7-6,83,73,65,70,67,64,99,84,60,30.26,30.11,5,1,11,0.06
2013-7-7,78,69,64,67,64,-100,97,88,68,30.19,30.09,6,2,13,0.62
2013-7-8,76,68,64,65,63,60,96,85,62,30.18,30.11,9,4,15,0.01
2013-7-9,76,69,64,70,67,63,98,91,80,30.18,30.08,10,3,16,0.24
2013-7-10,81,69,63,71,63,-100,97,86,64,30.11,29.93,7,3,17,0.46
2013-7-11,72,66,63,64,62,59,97,87,68,30.04,29.93,5,2,12,0.01
2013-7-12,69,63,58,62,60,56,97,89,78,30.15,30.02,4,1,9,0.04
2013-7-13,75,68,62,67,64,61,96,88,72,30.32,30.15,6,2,11,0.01
2013-7-14,81,73,67,68,66,64,96,80,61,30.40,30.31,7,2,14,0.00
2013-7-15,84,73,62,67,65,61,97,78,53,30.41,30.31,7,2,14,0.00
2013-7-16,85,75,66,71,68,64,96,79,59,30.40,30.30,8,2,15,0.00
2013-7-17,85,73,66,71,68,65,99,86,53,30.38,30.24,5,1,9,0.00
2013-7-18,86,76,66,73,69,65,98,82,55,30.27,30.12,7,1,14,0.00
2013-7-19,85,74,68,73,69,66,98,84,63,30.14,29.96,11,3,17,0.00
2013-7-20,73,69,65,71,65,-100,98,89,81,29.99,29.91,9,4,16,0.78
2013-7-21,77,70,64,68,65,63,98,87,68,30.03,29.97,4,1,8,0.05
2013-7-22,74,68,63,70,66,62,99,95,86,30.03,29.86,4,1,8,0.49
2013-7-23,76,68,61,67,64,59,99,90,67,29.86,29.76,10,4,17,0.21
2013-7-24,67,62,55,62,56,51,98,82,61,30.01,29.78,8,4,17,0.15
2013-7-25,71,59,49,55,51,47,97,77,47,30.13,30.01,4,1,11,0.01
2013-7-26,76,62,47,59,52,46,99,74,44,30.16,30.06,3,0,9,0.00
2013-7-27,69,64,57,65,61,55,95,89,73,30.08,29.94,4,0,12,0.05
2013-7-28,72,65,58,62,56,-100,97,77,51,30.08,29.93,10,3,22,0.11
2013-7-29,68,59,49,56,52,48,97,79,57,30.23,30.07,9,2,17,0.01
2013-7-30,71,62,51,57,54,50,98,77,54,30.28,30.20,7,2,14,0.00
2013-7-31,73,62,52,63,57,51,97,85,63,30.21,30.01,4,1,8,0.00
2013-8-1,74,66,62,64,61,58,98,84,61,30.03,29.91,9,2,18,0.02
2013-8-2,73,64,55,60,57,53,98,78,53,30.04,29.95,9,3,18,0.01
2013-8-3,66,63,60,62,60,58,98,90,78,30.04,29.99,11,4,28,0.09
2013-8-4,68,59,50,59,54,49,99,83,57,30.11,30.01,9,3,19,0.01
2013-8-5,69,58,47,54,50,46,98,77,45,30.16,30.08,7,1,13,0.01
2013-8-6,73,62,54,62,56,50,92,80,59,30.08,30.04,5,1,12,0.00
2013-8-7,76,67,63,70,64,61,97,91,79,30.09,30.01,6,2,16,0.45
2013-8-8,77,67,60,71,65,59,99,95,80,30.07,29.99,5,0,8,1.03
2013-8-9,72,69,66,69,68,65,99,97,84,30.07,29.96,8,2,16,1.48
2013-8-10,76,68,60,65,62,58,98,83,56,30.15,30.06,7,1,13,0.03
2013-8-11,79,68,57,66,61,56,99,80,51,30.18,30.07,5,1,12,0.00
2013-8-12,77,68,63,65,63,60,99,84,57,30.12,29.96,8,2,14,0.00
2013-8-13,72,64,56,65,58,-100,98,85,71,29.97,29.84,9,4,22,0.49
2013-8-14,61,52,47,52,42,-100,95,81,71,30.16,29.95,9,4,18,0.04
2013-8-15,69,48,43,53,28,-100,99,72,47,30.22,30.14,2,0,9,0.00
2013-8-16,71,57,47,56,45,-100,96,74,55,30.23,30.15,4,1,9,0.00
2013-8-17,68,60,48,56,53,47,97,78,60,30.30,30.23,8,2,17,0.00
2013-8-18,64,59,55,59,54,-100,95,86,78,30.28,30.19,4,1,12,0.32
2013-8-19,72,58,58,65,39,-100,98,88,74,30.21,30.11,6,1,14,0.12
2013-8-20,77,64,54,63,55,-100,99,81,50,30.27,30.15,3,0,8,0.01
2013-8-21,79,66,53,68,61,52,99,86,62,30.27,30.15,3,0,9,0.01
2013-8-22,77,66,62,67,63,60,96,90,66,30.17,30.04,10,3,16,0.09
2013-8-23,71,64,59,65,61,57,99,90,64,30.19,30.04,5,0,13,0.91
2013-8-24,72,63,54,59,56,53,98,81,60,30.37,30.20,4,1,10,0.01
2013-8-25,76,64,51,60,50,-100,96,71,48,30.43,30.31,5,1,11,0.00
2013-8-26,77,66,54,63,59,53,97,81,58,30.33,30.09,7,3,16,0.00
2013-8-27,73,66,67,69,49,-100,94,80,83,30.09,30.03,7,4,16,0.00
2013-8-28,71,53,66,68,-55,-100,98,26,94,29.95,29.91,9,2,16,1.30
2013-8-29,78,70,64,67,65,62,99,86,58,30.11,29.95,4,1,8,0.01
2013-8-30,81,68,58,66,62,57,99,84,53,30.10,29.94,6,1,11,0.01
2013-8-31,79,70,63,69,65,62,99,85,62,29.95,29.88,8,1,15,0.01
2013-9-1,79,69,64,70,62,-100,98,84,73,29.93,29.86,5,1,11,0.00
2013-9-2,79,70,62,69,65,61,98,86,64,29.90,29.83,10,4,18,0.00
2013-9-3,68,63,57,65,57,52,97,82,59,30.06,29.87,10,4,22,0.00
2013-9-4,71,57,50,55,-9,-100,97,52,46,30.16,30.04,6,2,13,0.00
2013-9-5,68,55,51,57,-17,-100,93,45,56,30.21,30.10,9,4,20,0.00
2013-9-6,70,47,41,51,-1,-100,96,57,38,30.29,30.18,3,0,7,0.00
2013-9-7,72,43,42,53,-39,-100,98,37,64,30.18,30.00,9,2,13,0.00
2013-9-8,73,47,57,65,-61,-100,95,21,74,30.10,29.98,7,2,15,0.10
2013-9-9,68,62,55,61,56,48,95,80,70,30.19,30.11,3,1,13,0.00
2013-9-10,82,59,61,72,14,-100,97,60,70,30.24,30.13,9,2,17,0.00
2013-9-11,83,53,66,71,10,-100,99,63,77,30.24,30.10,6,1,12,0.86
2013-9-12,78,67,63,69,57,-100,99,88,72,30.10,29.84,13,4,24,0.06
2013-9-13,60,50,47,57,3,-100,95,62,85,30.00,29.83,7,4,18,0.07
2013-9-14,56,46,43,44,-29,-100,94,45,70,30.19,30.00,7,2,15,0.07
2013-9-15,68,44,36,54,-6,-100,99,49,55,30.20,30.10,7,1,16,0.00
2013-9-16,62,55,51,54,51,49,97,87,66,30.29,30.09,7,2,14,0.13
2013-9-17,60,51,43,49,43,36,96,76,52,30.40,30.29,4,1,12,0.02
2013-9-18,50,45,42,40,38,37,85,74,62,30.32,30.27,2,0,7,0.00
2013-9-19,68,59,50,61,55,47,95,87,77,30.19,30.10,4,1,9,0.00
2013-9-20,73,61,49,65,57,48,99,89,75,30.12,29.94,6,1,12,0.00
2013-9-21,65,60,55,63,58,54,98,95,89,29.93,29.72,4,1,15,0.71
2013-9-22,57,52,47,53,46,-100,99,87,73,29.99,29.80,6,3,14,0.04
2013-9-23,53,47,38,45,42,37,95,81,68,30.13,29.99,5,2,11,0.01
2013-9-24,68,49,33,49,42,32,99,79,46,30.12,29.98,3,0,7,0.00
2013-9-25,62,53,38,49,45,37,99,77,55,30.02,29.93,4,0,12,0.01
2013-9-26,69,54,41,52,46,40,99,79,42,30.11,29.97,2,0,9,0.01
2013-9-27,67,54,41,54,48,40,97,82,57,30.24,30.11,4,1,10,0.00
2013-9-28,58,54,50,53,50,47,98,87,75,30.32,30.23,6,2,11,0.00
2013-9-29,64,54,46,51,46,-100,94,78,60,30.23,30.08,5,1,9,0.00
2013-9-30,69,56,43,57,51,42,97,84,57,30.11,30.03,5,1,10,0.00
2013-10-1,61,58,56,57,56,55,95,92,85,30.10,30.06,0,0,3,0.00
2013-10-2,72,63,56,61,53,-100,96,81,61,30.14,30.09,10,3,19,0.01
2013-10-3,75,64,51,64,58,50,99,83,63,30.17,30.08,4,0,8,0.00
2013-10-4,76,66,57,64,61,56,98,83,64,30.17,30.09,7,2,13,0.00
2013-10-5,79,67,60,64,55,-100,98,78,53,30.15,30.06,6,1,14,0.00
2013-10-6,80,70,60,63,59,57,96,73,45,30.07,29.88,6,2,16,0.00
2013-10-7,67,55,45,61,50,41,96,84,67,30.09,29.78,13,4,28,0.45
2013-10-8,61,50,40,46,42,39,97,75,52,30.31,30.10,5,1,9,0.01
2013-10-9,58,52,43,43,39,-100,87,66,53,30.34,30.26,6,2,12,0.00
2013-10-10,56,50,46,49,46,38,98,86,67,30.26,30.11,3,1,7,0.33
2013-10-11,56,52,49,55,50,-100,99,97,96,30.09,30.04,4,1,13,0.36
2013-10-12,61,56,52,59,55,51,99,95,81,30.22,30.06,6,2,14,0.02
2013-10-13,56,54,52,55,53,51,99,96,91,30.32,30.20,6,2,12,0.21
2013-10-14,59,54,52,56,54,52,99,97,91,30.33,30.24,4,1,9,0.15
2013-10-15,63,57,53,55,53,50,98,85,72,30.27,30.07,6,1,12,0.01
2013-10-16,66,58,51,58,52,48,90,81,61,30.06,29.92,8,1,15,0.00
2013-10-17,60,56,45,59,54,43,98,95,88,29.95,29.69,14,3,29,0.25
2013-10-18,55,47,41,43,39,36,94,77,51,30.02,29.87,13,6,25,0.04
2013-10-19,54,42,32,47,39,31,97,88,58,29.98,29.78,16,3,27,0.04
2013-10-20,52,42,35,37,33,-100,94,74,50,30.06,29.89,10,5,19,0.02
2013-10-21,63,46,32,39,35,30,94,67,35,30.07,29.90,8,1,16,0.00
2013-10-22,49,44,34,44,34,25,92,68,45,29.91,29.83,12,4,22,0.01
2013-10-23,38,35,33,36,33,28,94,90,83,29.87,29.67,7,2,21,0.05
2013-10-24,38,33,31,32,29,24,94,84,60,30.09,29.86,11,6,23,0.04
2013-10-25,38,34,30,31,30,28,96,85,71,30.25,30.09,10,5,19,0.01
2013-10-26,47,37,28,28,25,21,90,65,37,30.21,29.89,16,6,30,0.00
2013-10-27,46,39,33,34,28,-100,89,68,48,30.09,29.91,11,5,22,0.00
2013-10-28,56,40,28,36,29,-100,94,70,37,30.27,30.09,5,1,12,0.00
2013-10-29,57,43,29,37,32,27,95,70,37,30.34,30.26,6,1,12,0.00
2013-10-30,59,49,41,52,44,36,92,82,72,30.26,30.16,5,1,13,0.00
2013-10-31,62,57,54,56,54,52,95,88,76,30.17,29.73,8,1,23,0.05
2013-11-1,62,56,46,56,48,41,92,76,54,29.72,29.48,17,6,32,0.11
2013-11-2,46,44,40,42,40,37,93,84,74,29.89,29.65,12,4,22,0.01
2013-11-3,44,37,28,38,28,-100,95,74,50,30.37,29.89,9,4,18,0.07
2013-11-4,36,30,23,24,20,17,86,65,51,30.50,30.37,6,2,15,0.01
2013-11-5,46,38,30,35,26,22,85,63,46,30.49,30.35,5,1,12,0.00
2013-11-6,64,50,34,49,42,32,98,78,55,30.38,29.97,5,0,12,0.00
2013-11-7,59,44,33,51,38,23,95,82,63,30.05,29.88,12,7,25,0.13
2013-11-8,37,33,27,29,25,22,88,73,57,30.24,30.01,16,8,32,0.01
2013-11-9,53,37,23,31,21,-100,92,60,25,30.22,29.96,10,2,19,0.00
2013-11-10,47,40,33,34,27,-100,75,63,42,30.20,29.91,22,12,39,0.00
2013-11-11,49,38,29,35,25,15,88,64,28,30.22,29.97,11,4,18,0.03
2013-11-12,39,27,23,36,22,16,94,82,64,30.34,29.99,11,7,22,0.02
2013-11-13,29,24,21,20,18,17,87,78,62,30.41,30.29,11,7,22,0.01
2013-11-14,46,35,24,20,17,12,83,51,27,30.29,30.16,14,7,25,0.01
2013-11-15,50,43,37,38,18,-100,84,39,29,30.22,30.13,10,4,19,0.01
2013-11-16,55,45,35,45,39,-100,97,83,67,30.25,30.12,5,1,13,0.01
2013-11-17,57,52,47,54,49,45,96,90,79,30.11,29.61,13,2,31,0.06
2013-11-18,52,46,36,46,34,27,86,66,43,29.95,29.70,20,11,34,0.06
2013-11-19,35,30,25,26,23,21,86,75,67,30.31,29.96,12,6,23,0.00
2013-11-20,38,30,22,21,17,12,88,64,36,30.42,30.30,10,3,18,0.00
2013-11-21,44,36,28,36,30,19,90,80,66,30.42,30.27,4,1,14,0.00
2013-11-22,50,46,36,49,44,33,97,93,83,30.27,30.03,13,4,28,0.09
2013-11-27,33,26,17,32,24,14,98,93,83,29.93,29.55,16,9,32,0.01
2013-11-28,23,19,15,19,15,11,91,83,75,30.33,29.95,13,5,27,0.00
2013-11-29,29,24,18,20,19,16,94,81,65,30.57,30.32,4,2,14,0.00
2013-11-30,26,22,19,22,17,-100,89,84,79,30.55,30.20,7,2,17,0.00
2013-12-1,44,32,20,32,25,18,94,78,52,30.19,29.93,9,1,13,0.01
2013-12-2,46,39,33,37,33,30,90,80,69,29.95,29.79,3,0,8,0.01
2013-12-3,51,41,34,41,35,32,97,83,58,29.93,29.81,5,0,12,0.01
2013-12-13,30,23,16,17,12,5,71,63,56,30.18,30.05,17,6,27,0.00
2013-12-14,30,28,26,29,22,-100,97,86,64,30.18,29.65,9,3,19,0.00
2013-12-15,35,27,22,34,25,18,98,92,83,29.82,29.56,22,11,36,0.06
2013-12-16,25,21,17,24,18,15,95,89,82,30.01,29.83,15,6,33,0.01
2013-12-17,33,29,25,32,27,22,97,94,88,29.97,29.83,10,3,20,0.02
2013-12-18,26,23,20,23,20,17,94,87,78,30.10,29.91,13,7,26,0.01
2013-12-19,49,40,24,35,26,13,79,58,44,30.06,29.99,11,5,25,0.42
2013-12-20,53,47,38,48,36,25,92,67,46,30.05,29.92,7,3,17,0.01
2013-12-21,61,56,53,55,42,-100,92,79,75,29.96,29.81,8,2,17,0.08
2013-12-22,61,57,54,56,50,-100,95,82,73,29.96,29.71,14,6,32,0.22
2013-12-23,54,39,27,50,37,21,95,90,79,30.18,29.93,13,6,27,0.03
2013-12-24,27,20,10,21,14,5,90,78,60,30.35,30.10,14,7,26,0.01
2013-12-25,23,16,7,14,9,4,88,74,60,30.36,30.15,5,2,12,0.00
2013-12-26,31,27,23,26,19,14,93,73,59,30.23,30.06,19,6,27,0.00
2013-12-27,38,29,19,21,17,12,84,64,36,30.28,30.21,12,3,23,0.00
2013-12-30,36,26,17,35,24,15,95,91,86,30.07,29.78,14,6,24,0.01
2013-12-31,23,20,18,21,13,-100,94,85,80,30.16,29.96,19,9,36,0.00
2014-1-1,39,30,22,24,20,17,85,66,45,30.21,30.01,11,3,19,0.01
2014-1-2,30,25,14,25,22,11,94,88,76,30.00,29.56,10,1,21,0.01